X  Close Metar Aviation Weather Data     EHKD De Kooy Airport
Temperature
13°C Temperature
10°C Dewpoint
82% Humidity



Wind
27 KM/H
17 MPH
8 M/S
15 KTS



230°
SW
Current Conditions

Overcast Overcast
Pressure 1025.06 (hPa) - 30.27 (inHg)
Visibility 6 (mile) - 9.7 (km)
Airport
Airport-code EHKD

Location: De Kooy Airport
Distance: 34 (km)

Metar:
EHKD 122055Z AUTO 23015KT 9999 OVC270 13/10 Q1025 BLU

Time: 12-04-2024 22:55 CEST